Time;durP1;ratioP1;P1;durP2;ratioP2;P2;SDS_P1;SDS_P2;PMS_P1;PMS_P2;Temp;Humidity;BMP_temperature;BMP_pressure;BME280_temperature;BME280_humidity;BME280_pressure;Samples;Min_cycle;Max_cycle;Signal;HPM_P1;HPM_P2
2021/10/14 00:02:23;;;;;;;5.43;2.17;;;;;;;11.93;80.56;101418.53;5075961;28;20647;-70
2021/10/14 00:04:49;;;;;;;5.57;1.87;;;;;;;12.05;79.84;101415.25;5075064;28;20178;-69
2021/10/14 00:07:14;;;;;;;6.80;2.10;;;;;;;12.14;79.44;101406.75;5074656;28;20185;-70
2021/10/14 00:09:40;;;;;;;4.10;1.93;;;;;;;12.13;79.95;101412.19;5076147;28;20206;-70
2021/10/14 00:12:05;;;;;;;9.23;2.40;;;;;;;12.08;79.53;101417.78;5074334;28;20182;-69
2021/10/14 00:14:30;;;;;;;7.53;2.40;;;;;;;12.02;80.61;101418.06;5075682;28;20224;-70
2021/10/14 00:16:57;;;;;;;5.10;2.20;;;;;;;12.31;79.72;101416.63;5074302;28;20182;-69
2021/10/14 00:19:22;;;;;;;5.87;1.90;;;;;;;12.08;79.68;101415.09;5073871;28;20178;-71
2021/10/14 00:21:47;;;;;;;5.73;2.33;;;;;;;12.24;79.92;101414.31;5074546;28;20311;-69
2021/10/14 00:24:13;;;;;;;6.67;2.73;;;;;;;12.12;80.59;101405.97;5074247;28;20644;-70
2021/10/14 00:26:38;;;;;;;7.47;2.20;;;;;;;12.18;80.33;101397.63;5074436;28;20179;-70
2021/10/14 00:29:03;;;;;;;6.67;2.40;;;;;;;12.13;79.91;101393.44;5075753;28;20185;-70
2021/10/14 00:31:29;;;;;;;9.10;2.00;;;;;;;12.15;80.35;101389.75;5075089;28;20584;-69
2021/10/14 00:33:55;;;;;;;3.90;2.10;;;;;;;12.08;80.47;101385.66;5075666;28;20651;-70
2021/10/14 00:36:21;;;;;;;9.37;2.63;;;;;;;12.11;80.72;101385.50;5074704;28;20663;-70
2021/10/14 00:38:46;;;;;;;6.60;2.20;;;;;;;12.15;80.80;101394.25;5057543;28;20220;-70
2021/10/14 00:41:14;;;;;;;8.00;2.00;;;;;;;12.33;79.66;101382.63;5073778;28;20205;-69
2021/10/14 00:43:39;;;;;;;7.27;2.10;;;;;;;12.03;80.78;101378.81;5074053;28;20174;-69
2021/10/14 00:46:04;;;;;;;7.13;2.23;;;;;;;12.25;80.31;101376.75;5074971;28;20636;-70
2021/10/14 00:48:29;;;;;;;6.60;2.17;;;;;;;12.21;80.30;101367.16;5075156;28;20179;-70
2021/10/14 00:50:55;;;;;;;7.97;2.30;;;;;;;12.08;81.56;101358.03;5074833;28;20576;-70
2021/10/14 00:53:20;;;;;;;10.33;2.30;;;;;;;12.14;81.17;101355.03;5075008;28;20668;-70
2021/10/14 00:55:45;;;;;;;4.23;1.83;;;;;;;12.08;81.29;101360.72;5074841;28;20546;-70
2021/10/14 00:58:11;;;;;;;5.07;2.20;;;;;;;11.82;82.04;101356.66;5075151;28;20250;-70
2021/10/14 01:00:36;;;;;;;6.40;2.07;;;;;;;11.93;81.85;101353.47;5079355;28;20202;-70
2021/10/14 01:03:02;;;;;;;6.07;2.20;;;;;;;11.92;81.79;101351.75;5086244;28;20175;-69
2021/10/14 01:05:27;;;;;;;5.50;2.47;;;;;;;11.86;82.05;101347.53;5066524;28;20178;-71
2021/10/14 01:07:52;;;;;;;7.57;2.73;;;;;;;11.72;82.51;101336.66;5083984;28;20265;-70
2021/10/14 01:10:18;;;;;;;7.23;2.00;;;;;;;11.81;82.77;101349.59;5080992;28;20572;-69
2021/10/14 01:12:43;;;;;;;8.00;2.30;;;;;;;12.16;82.01;101337.97;5081715;28;20194;-70
2021/10/14 01:15:24;;;;;;;6.27;2.43;;;;;;;12.01;81.93;101333.41;5074821;28;20181;-69
2021/10/14 01:17:49;;;;;;;3.67;2.03;;;;;;;11.68;82.57;101327.91;5057086;28;20231;-70
2021/10/14 01:20:15;;;;;;;4.50;1.70;;;;;;;11.57;82.86;101317.75;5073812;28;20198;-70
2021/10/14 01:22:40;;;;;;;7.17;1.93;;;;;;;11.67;82.66;101323.50;5074885;28;20175;-70
2021/10/14 01:25:06;;;;;;;3.93;2.03;;;;;;;11.62;83.09;101319.34;5074412;28;20182;-69
2021/10/14 01:27:31;;;;;;;6.23;2.00;;;;;;;11.84;82.28;101330.72;5074368;28;20178;-70
2021/10/14 01:29:56;;;;;;;4.17;1.63;;;;;;;11.77;82.87;101331.94;5073299;28;20202;-70
2021/10/14 01:32:22;;;;;;;4.57;1.90;;;;;;;11.73;83.20;101330.34;5074086;28;20204;-70
2021/10/14 01:34:47;;;;;;;5.00;1.77;;;;;;;11.96;82.45;101338.13;5073876;28;20175;-70
2021/10/14 01:37:12;;;;;;;7.17;2.10;;;;;;;11.71;84.03;101338.44;5078167;28;20533;-69
2021/10/14 01:39:38;;;;;;;5.07;1.93;;;;;;;11.65;84.02;101354.81;5074940;28;20192;-70
2021/10/14 01:42:03;;;;;;;4.67;1.70;;;;;;;11.34;84.62;101344.72;5056405;28;20232;-70
2021/10/14 01:44:28;;;;;;;3.37;1.90;;;;;;;11.38;85.05;101354.31;5074602;28;20184;-70
2021/10/14 01:46:54;;;;;;;4.77;1.30;;;;;;;11.41;84.21;101338.13;5074429;28;20182;-69
2021/10/14 01:49:19;;;;;;;2.60;1.50;;;;;;;11.26;85.29;101341.56;5074402;28;20186;-70
2021/10/14 01:51:44;;;;;;;7.10;1.90;;;;;;;11.36;85.25;101331.28;5074274;28;20225;-71
2021/10/14 01:54:10;;;;;;;6.47;1.70;;;;;;;11.30;85.31;101329.78;5074610;28;20712;-71
2021/10/14 01:56:35;;;;;;;5.20;1.93;;;;;;;11.13;87.26;101333.25;5073002;28;20180;-70
2021/10/14 01:59:00;;;;;;;3.90;1.30;;;;;;;11.17;87.21;101334.00;5074330;28;20178;-70
2021/10/14 02:01:25;;;;;;;5.47;1.60;;;;;;;11.07;88.56;101346.03;5075939;28;20187;-69
2021/10/14 02:03:51;;;;;;;3.53;1.30;;;;;;;11.19;89.06;101332.09;5076008;28;20174;-69
2021/10/14 02:06:16;;;;;;;3.03;1.30;;;;;;;11.03;89.26;101334.63;5075250;28;20180;-69
2021/10/14 02:08:41;;;;;;;3.87;1.30;;;;;;;11.23;90.73;101333.69;5074583;28;20184;-70
2021/10/14 02:11:07;;;;;;;6.57;1.60;;;;;;;11.08;92.07;101329.06;5073544;28;20217;-69
2021/10/14 02:13:32;;;;;;;4.50;1.40;;;;;;;10.80;93.72;101333.03;5073656;28;20195;-69
2021/10/14 02:15:57;;;;;;;4.47;1.60;;;;;;;10.58;95.59;101334.94;5074574;28;20201;-69
2021/10/14 02:18:22;;;;;;;4.40;1.50;;;;;;;10.80;95.85;101319.69;5074422;28;20173;-69
2021/10/14 02:20:48;;;;;;;3.57;1.63;;;;;;;10.69;96.33;101321.09;5074206;28;20195;-69
2021/10/14 02:23:13;;;;;;;4.60;1.30;;;;;;;10.87;96.70;101318.47;5074134;28;20545;-69
2021/10/14 02:25:38;;;;;;;3.10;1.30;;;;;;;10.89;96.22;101319.25;5073589;28;20224;-70
2021/10/14 02:28:04;;;;;;;5.60;1.37;;;;;;;11.16;94.66;101297.53;5073280;28;20171;-70
2021/10/14 02:30:29;;;;;;;3.63;1.80;;;;;;;11.12;94.46;101298.59;5073039;28;20301;-69
2021/10/14 02:32:54;;;;;;;5.90;1.63;;;;;;;10.89;95.29;101308.56;5074581;28;20190;-69
2021/10/14 02:35:19;;;;;;;5.67;1.80;;;;;;;10.98;97.02;101303.72;5056422;28;20201;-70
2021/10/14 02:37:45;;;;;;;4.17;2.00;;;;;;;10.94;95.89;101303.00;5074634;28;20662;-70
2021/10/14 02:40:11;;;;;;;5.17;2.27;;;;;;;11.04;96.26;101295.41;5074492;28;20224;-69
2021/10/14 02:42:36;;;;;;;5.57;2.37;;;;;;;11.12;96.33;101301.25;5076031;28;20173;-70
2021/10/14 02:45:02;;;;;;;6.80;2.67;;;;;;;11.00;95.42;101289.34;5077866;28;20241;-69
2021/10/14 02:47:27;;;;;;;3.53;2.13;;;;;;;10.96;97.24;101288.63;5078465;28;20174;-70
2021/10/14 02:49:52;;;;;;;2.30;2.10;;;;;;;11.21;96.67;101295.50;5077469;28;20343;-69
2021/10/14 02:52:18;;;;;;;4.80;2.53;;;;;;;11.49;94.50;101279.81;5077101;28;20177;-70
2021/10/14 02:54:43;;;;;;;4.40;2.47;;;;;;;11.43;95.63;101273.91;5077673;28;20170;-70
2021/10/14 02:57:08;;;;;;;9.43;2.60;;;;;;;11.55;94.90;101287.56;5076799;28;20223;-70
2021/10/14 02:59:34;;;;;;;3.57;2.20;;;;;;;11.61;95.04;101285.53;5077223;28;20169;-69
2021/10/14 03:01:59;;;;;;;6.77;2.70;;;;;;;11.15;96.40;101283.31;5076383;28;20177;-70
2021/10/14 03:04:24;;;;;;;3.23;2.40;;;;;;;11.55;96.63;101286.69;5077291;28;20175;-71
2021/10/14 03:06:50;;;;;;;4.47;2.13;;;;;;;11.18;96.67;101276.94;5076331;28;20177;-71
2021/10/14 03:09:16;;;;;;;4.07;2.20;;;;;;;11.33;96.71;101268.16;5076167;28;20654;-70
2021/10/14 03:11:41;;;;;;;5.53;2.20;;;;;;;11.17;97.14;101275.22;5077590;28;20197;-70
2021/10/14 03:14:06;;;;;;;3.00;1.70;;;;;;;11.09;97.27;101264.88;5077996;28;20205;-70
2021/10/14 03:16:32;;;;;;;3.13;2.10;;;;;;;11.27;98.27;101273.81;5076224;28;20664;-70
2021/10/14 03:18:57;;;;;;;3.03;1.90;;;;;;;11.26;97.20;101264.06;5077204;28;20281;-71
2021/10/14 03:21:23;;;;;;;1.93;1.70;;;;;;;10.70;99.05;101270.28;5075895;28;20198;-70
2021/10/14 03:23:48;;;;;;;3.10;1.97;;;;;;;11.26;97.89;101267.59;5076316;28;20646;-70
2021/10/14 03:26:13;;;;;;;2.90;1.80;;;;;;;11.40;96.65;101264.25;5076280;28;20174;-71
2021/10/14 03:28:39;;;;;;;2.43;1.80;;;;;;;11.38;95.76;101258.13;5075988;28;20198;-70
2021/10/14 03:31:04;;;;;;;3.20;2.20;;;;;;;11.53;95.75;101252.03;5076123;28;20213;-70
2021/10/14 03:33:29;;;;;;;3.60;1.90;;;;;;;11.49;96.25;101253.09;5076105;28;20195;-70
2021/10/14 03:35:55;;;;;;;2.77;1.90;;;;;;;11.61;94.84;101256.97;5074577;28;20174;-70
2021/10/14 03:38:20;;;;;;;3.27;1.73;;;;;;;11.68;94.62;101254.84;5075978;28;20314;-70
2021/10/14 03:40:45;;;;;;;4.63;1.97;;;;;;;11.62;95.21;101249.81;5075985;28;20197;-70
2021/10/14 03:43:11;;;;;;;3.30;2.20;;;;;;;11.58;96.07;101260.66;5075706;28;20173;-69
2021/10/14 03:45:36;;;;;;;3.40;2.03;;;;;;;11.64;95.12;101254.16;5074475;28;20177;-69
2021/10/14 03:48:01;;;;;;;3.23;2.00;;;;;;;11.70;94.39;101247.63;5075132;28;20194;-69
2021/10/14 03:50:27;;;;;;;3.63;2.00;;;;;;;11.43;95.22;101253.41;5075559;28;20193;-69
2021/10/14 03:52:52;;;;;;;2.70;1.90;;;;;;;11.73;95.17;101264.38;5073416;28;20194;-69
2021/10/14 03:55:17;;;;;;;1.90;1.77;;;;;;;11.79;94.60;101256.06;5075736;28;20185;-70
2021/10/14 03:57:43;;;;;;;1.77;1.67;;;;;;;11.83;93.80;101252.28;5074606;28;20535;-69
2021/10/14 04:00:09;;;;;;;2.20;1.90;;;;;;;11.90;93.72;101250.19;5074357;28;20189;-70
2021/10/14 04:02:34;;;;;;;1.97;1.57;;;;;;;11.80;93.39;101248.91;5074092;28;20182;-69
2021/10/14 04:05:00;;;;;;;2.43;1.80;;;;;;;11.91;93.63;101251.91;5074964;28;20183;-69
2021/10/14 04:07:25;;;;;;;2.03;1.67;;;;;;;11.80;93.79;101243.56;5075605;28;20544;-69
2021/10/14 04:09:50;;;;;;;2.30;1.63;;;;;;;11.82;94.57;101252.34;5075212;28;20201;-69
2021/10/14 04:12:16;;;;;;;3.40;1.70;;;;;;;11.83;93.90;101248.75;5075307;28;20174;-70
2021/10/14 04:14:41;;;;;;;1.63;1.40;;;;;;;11.63;94.75;101243.53;5075397;28;20202;-70
2021/10/14 04:17:06;;;;;;;2.33;1.80;;;;;;;11.81;94.83;101251.50;5074508;28;20178;-70
2021/10/14 04:19:32;;;;;;;1.60;1.50;;;;;;;11.88;93.90;101247.56;5076246;28;20178;-70
2021/10/14 04:21:57;;;;;;;1.63;1.53;;;;;;;11.70;94.86;101250.28;5058841;28;20213;-70
2021/10/14 04:24:22;;;;;;;2.07;1.50;;;;;;;11.99;94.35;101256.84;5074292;28;20637;-69
2021/10/14 04:26:48;;;;;;;1.83;1.63;;;;;;;11.84;95.46;101253.16;5075250;28;20225;-70
2021/10/14 04:29:13;;;;;;;2.33;1.50;;;;;;;11.89;95.34;101269.81;5075936;28;20174;-70
2021/10/14 04:31:38;;;;;;;1.93;1.60;;;;;;;12.16;94.19;101256.81;5075885;28;20249;-70
2021/10/14 04:34:06;;;;;;;1.50;1.40;;;;;;;12.21;94.30;101255.63;5075093;28;20197;-70
2021/10/14 04:36:31;;;;;;;1.47;1.23;;;;;;;12.09;94.37;101260.78;5073944;28;20633;-70
2021/10/14 04:38:56;;;;;;;1.67;1.57;;;;;;;12.10;94.69;101259.81;5074028;28;20177;-68
2021/10/14 04:41:22;;;;;;;3.43;1.80;;;;;;;12.02;94.79;101260.25;5075725;28;20190;-70
2021/10/14 04:43:47;;;;;;;2.33;1.37;;;;;;;12.04;95.11;101262.81;5076168;28;20640;-70
2021/10/14 04:46:12;;;;;;;1.93;1.30;;;;;;;12.00;94.36;101259.44;5076400;28;20193;-69
2021/10/14 04:48:37;;;;;;;2.17;1.40;;;;;;;12.11;94.51;101254.41;5076289;28;20176;-70
2021/10/14 04:51:03;;;;;;;2.07;1.50;;;;;;;12.02;95.18;101254.03;5079128;28;20205;-70
2021/10/14 04:53:28;;;;;;;2.83;1.73;;;;;;;12.12;94.83;101256.13;5078680;28;20714;-69
2021/10/14 04:55:53;;;;;;;1.67;1.57;;;;;;;12.18;94.66;101255.78;5078045;28;20647;-69
2021/10/14 04:58:19;;;;;;;2.13;1.30;;;;;;;12.28;93.88;101244.63;5073616;28;20178;-70
2021/10/14 05:00:44;;;;;;;1.47;1.23;;;;;;;12.17;94.65;101259.41;5074037;28;20239;-69
2021/10/14 05:03:09;;;;;;;1.57;1.40;;;;;;;12.26;94.26;101252.72;5074285;28;20486;-71
2021/10/14 05:05:34;;;;;;;1.77;1.37;;;;;;;12.29;94.25;101246.34;5081955;28;20174;-69
2021/10/14 05:08:00;;;;;;;2.30;1.40;;;;;;;12.29;94.41;101251.72;5073982;28;20178;-72
2021/10/14 05:10:25;;;;;;;1.60;1.30;;;;;;;12.32;94.45;101251.53;5074223;28;20597;-71
2021/10/14 05:12:51;;;;;;;1.70;1.60;;;;;;;12.37;94.19;101254.84;5073862;28;20198;-71
2021/10/14 05:15:16;;;;;;;2.17;1.60;;;;;;;12.37;94.05;101250.34;5074058;28;20179;-70
2021/10/14 05:17:41;;;;;;;2.87;1.70;;;;;;;12.39;94.21;101250.25;5073276;28;20177;-70
2021/10/14 05:20:07;;;;;;;2.37;2.10;;;;;;;12.36;94.14;101248.63;5073696;28;20758;-70
2021/10/14 05:22:33;;;;;;;5.47;3.50;;;;;;;12.31;94.66;101263.19;5072524;28;20227;-69
2021/10/14 05:24:58;;;;;;;2.67;2.47;;;;;;;12.25;94.70;101255.47;5055786;28;20264;-69
2021/10/14 05:27:24;;;;;;;3.03;2.60;;;;;;;12.40;95.65;101254.66;5072689;28;20253;-69
2021/10/14 05:29:49;;;;;;;4.20;3.80;;;;;;;12.48;94.26;101252.44;5100498;22;20210;-73
2021/10/14 05:32:14;;;;;;;2.80;2.33;;;;;;;12.38;94.48;101251.22;5053403;28;20573;-77
2021/10/14 05:34:40;;;;;;;4.00;2.30;;;;;;;12.32;95.53;101256.91;5036385;28;20592;-75
2021/10/14 05:37:05;;;;;;;3.73;2.87;;;;;;;12.46;94.55;101254.34;5054488;28;20499;-76
2021/10/14 05:39:30;;;;;;;4.40;2.70;;;;;;;12.53;95.24;101251.22;5053619;28;20197;-76
2021/10/14 05:41:56;;;;;;;4.70;3.20;;;;;;;12.65;94.40;101244.38;5054129;28;20202;-73
2021/10/14 05:44:21;;;;;;;6.80;3.90;;;;;;;12.63;93.97;101251.59;5052080;28;20203;-75
2021/10/14 05:46:46;;;;;;;10.67;5.60;;;;;;;12.60;94.28;101257.13;5055619;28;20171;-77
2021/10/14 05:49:12;;;;;;;10.90;5.97;;;;;;;12.58;94.83;101264.38;5057534;28;20171;-78
2021/10/14 05:51:37;;;;;;;7.03;4.13;;;;;;;12.72;94.09;101260.94;5053397;28;20262;-75
2021/10/14 05:54:02;;;;;;;5.93;3.47;;;;;;;12.80;94.16;101258.72;5052468;28;20195;-73
2021/10/14 05:56:28;;;;;;;3.80;3.40;;;;;;;12.71;94.71;101264.59;5053630;28;20202;-73
2021/10/14 05:58:53;;;;;;;5.50;4.03;;;;;;;12.68;94.41;101264.75;5053854;28;20229;-75
2021/10/14 06:01:19;;;;;;;5.73;3.90;;;;;;;12.74;94.26;101264.41;5035677;28;20573;-75
2021/10/14 06:03:44;;;;;;;7.20;4.40;;;;;;;12.69;94.79;101267.34;5053626;28;20206;-74
2021/10/14 06:06:10;;;;;;;8.10;4.20;;;;;;;12.92;94.00;101252.66;5035454;28;20188;-75
2021/10/14 06:08:35;;;;;;;7.10;4.80;;;;;;;12.84;94.17;101253.09;5053315;28;20176;-75
2021/10/14 06:11:00;;;;;;;5.93;4.87;;;;;;;12.93;94.37;101264.25;5052091;28;20230;-75
2021/10/14 06:13:25;;;;;;;7.80;4.97;;;;;;;12.81;94.77;101258.63;5053256;28;20198;-75
2021/10/14 06:15:51;;;;;;;14.00;5.60;;;;;;;12.79;95.06;101263.19;5051514;28;20187;-75
2021/10/14 06:18:16;;;;;;;8.50;5.47;;;;;;;12.90;94.74;101259.91;5052346;28;20656;-76
2021/10/14 06:20:42;;;;;;;9.87;6.47;;;;;;;12.92;94.80;101266.06;5053251;28;20249;-75
2021/10/14 06:23:07;;;;;;;10.63;6.03;;;;;;;12.92;94.78;101260.69;5053183;28;20639;-75
2021/10/14 06:25:33;;;;;;;9.50;5.67;;;;;;;13.12;93.96;101252.41;5051854;28;20175;-73
2021/10/14 06:27:58;;;;;;;10.97;6.53;;;;;;;12.96;94.91;101254.22;5052086;28;20268;-73
2021/10/14 06:30:23;;;;;;;8.47;6.07;;;;;;;12.99;94.49;101258.53;5053936;28;20214;-75
2021/10/14 06:32:49;;;;;;;10.90;7.00;;;;;;;12.98;94.62;101255.00;5056967;28;20199;-75
2021/10/14 06:35:14;;;;;;;10.37;7.07;;;;;;;12.83;95.55;101259.41;5058039;28;20182;-75
2021/10/14 06:37:39;;;;;;;12.47;7.40;;;;;;;12.96;95.41;101256.91;5057207;28;20175;-75
2021/10/14 06:40:05;;;;;;;10.73;7.60;;;;;;;12.93;95.08;101256.19;5057121;28;20594;-75
2021/10/14 06:42:30;;;;;;;10.73;8.00;;;;;;;12.92;95.22;101254.47;5053573;28;20172;-74
2021/10/14 06:44:56;;;;;;;11.77;8.00;;;;;;;12.88;95.55;101266.31;5051588;28;20172;-74
2021/10/14 06:47:21;;;;;;;9.13;7.10;;;;;;;12.83;96.12;101266.56;5051687;28;20191;-74
2021/10/14 06:49:48;;;;;;;14.63;7.87;;;;;;;13.00;96.17;101253.09;5051359;28;20179;-74
2021/10/14 06:52:15;;;;;;;11.07;8.20;;;;;;;13.15;95.61;101257.59;5052818;28;20172;-74
2021/10/14 06:54:41;;;;;;;14.70;9.10;;;;;;;13.03;95.82;101254.75;5052833;28;20183;-74
2021/10/14 06:57:07;;;;;;;10.47;7.83;;;;;;;13.20;95.74;101249.31;5053250;28;20191;-75
2021/10/14 06:59:32;;;;;;;13.03;8.10;;;;;;;13.21;95.57;101253.72;5052789;28;20190;-74
2021/10/14 07:01:57;;;;;;;11.20;7.90;;;;;;;13.19;95.75;101244.06;5052419;28;20203;-74
2021/10/14 07:04:23;;;;;;;12.80;8.20;;;;;;;13.19;95.18;101244.06;5052218;28;20225;-74
2021/10/14 07:06:48;;;;;;;15.87;8.97;;;;;;;13.26;95.83;101242.75;5050954;28;20211;-74
2021/10/14 07:09:13;;;;;;;12.80;8.67;;;;;;;13.27;95.34;101241.78;5050954;28;20176;-75
2021/10/14 07:11:51;;;;;;;13.10;8.30;;;;;;;13.50;94.86;101241.34;5051041;28;20200;-75
2021/10/14 07:14:16;;;;;;;15.73;9.30;;;;;;;13.27;95.81;101236.44;5050764;28;20199;-74
2021/10/14 07:16:41;;;;;;;15.07;8.03;;;;;;;13.35;95.61;101251.13;5052612;28;20184;-75
2021/10/14 07:19:06;;;;;;;16.47;8.57;;;;;;;13.28;95.41;101251.56;5034086;28;20604;-74
2021/10/14 07:21:32;;;;;;;17.07;9.73;;;;;;;13.27;96.19;101255.19;5050947;28;20192;-75
2021/10/14 07:23:57;;;;;;;11.57;9.07;;;;;;;13.24;96.79;101252.69;5051130;28;20172;-75
2021/10/14 07:26:22;;;;;;;17.80;9.87;;;;;;;13.11;96.40;101253.38;5051170;28;20186;-75
2021/10/14 07:28:48;;;;;;;16.20;9.70;;;;;;;13.25;96.93;101252.59;5053672;28;20180;-75
2021/10/14 07:31:13;;;;;;;17.40;11.30;;;;;;;13.38;96.03;101258.13;5054146;28;20222;-74
2021/10/14 07:33:38;;;;;;;15.77;9.97;;;;;;;13.38;96.14;101250.06;5055338;28;20649;-74
2021/10/14 07:36:06;;;;;;;14.50;9.63;;;;;;;13.53;95.63;101253.69;5054568;28;20184;-74
2021/10/14 07:38:31;;;;;;;20.07;10.07;;;;;;;13.52;95.25;101260.00;5054108;28;20560;-74
2021/10/14 07:40:56;;;;;;;18.33;10.53;;;;;;;13.48;95.70;101253.97;5054277;28;20207;-74
2021/10/14 07:43:21;;;;;;;15.27;10.57;;;;;;;13.34;96.11;101265.47;5055344;28;20172;-74
2021/10/14 07:45:47;;;;;;;18.73;11.17;;;;;;;13.36;96.52;101273.41;5055238;28;20183;-73
2021/10/14 07:48:12;;;;;;;20.60;11.07;;;;;;;13.29;97.20;101272.91;5053808;28;20691;-74
2021/10/14 07:50:38;;;;;;;19.50;10.57;;;;;;;13.20;97.04;101267.22;5055077;28;20691;-74
2021/10/14 07:53:14;;;;;;;16.70;10.70;;;;;;;13.36;96.83;101268.06;5053731;28;20276;-73
2021/10/14 07:55:39;;;;;;;17.60;10.23;;;;;;;13.39;97.06;101279.50;5053768;28;20180;-74
2021/10/14 07:58:04;;;;;;;16.10;10.47;;;;;;;13.24;97.05;101276.81;5053700;28;20250;-73
2021/10/14 08:00:29;;;;;;;17.17;9.87;;;;;;;13.47;96.14;101275.50;5054897;28;20676;-73
2021/10/14 08:02:55;;;;;;;14.27;9.40;;;;;;;13.35;96.27;101283.28;5055167;28;20182;-73
2021/10/14 08:05:20;;;;;;;14.70;9.03;;;;;;;13.54;95.94;101275.06;5037152;28;20267;-72
2021/10/14 08:07:46;;;;;;;14.20;9.27;;;;;;;13.35;97.00;101267.19;5053684;28;20234;-73
2021/10/14 08:10:11;;;;;;;13.40;8.30;;;;;;;13.50;96.63;101281.56;5053730;28;20195;-74
2021/10/14 08:12:36;;;;;;;17.17;9.80;;;;;;;13.69;95.87;101265.22;5054987;28;20186;-73
2021/10/14 08:15:02;;;;;;;13.10;8.93;;;;;;;13.62;96.29;101271.91;5036818;28;20329;-73
2021/10/14 08:17:28;;;;;;;11.87;7.70;;;;;;;13.77;95.59;101276.41;5054601;28;20176;-73
2021/10/14 08:19:53;;;;;;;10.83;7.40;;;;;;;13.70;95.72;101288.41;5053018;28;20183;-73
2021/10/14 08:22:18;;;;;;;13.53;8.10;;;;;;;13.80;95.07;101272.66;5053503;28;20644;-72
2021/10/14 08:24:45;;;;;;;10.37;6.57;;;;;;;13.63;95.32;101279.00;5054361;28;20172;-72
2021/10/14 08:27:11;;;;;;;10.93;6.73;;;;;;;13.73;95.49;101273.00;5054212;28;20225;-72
2021/10/14 08:29:36;;;;;;;7.27;5.43;;;;;;;13.82;95.37;101282.34;5053104;28;20637;-72
2021/10/14 08:32:02;;;;;;;9.80;6.30;;;;;;;13.83;94.96;101281.41;5052638;28;20269;-72
2021/10/14 08:34:28;;;;;;;10.30;5.10;;;;;;;13.86;94.56;101283.03;5054277;28;20198;-72
2021/10/14 08:36:53;;;;;;;8.07;6.23;;;;;;;14.01;94.75;101285.66;5053138;28;20180;-72
2021/10/14 08:39:18;;;;;;;7.93;5.37;;;;;;;14.12;94.05;101284.13;5052943;28;20176;-73
2021/10/14 08:41:46;;;;;;;9.57;5.47;;;;;;;14.37;93.32;101281.69;5054378;28;20270;-72
2021/10/14 08:44:13;;;;;;;8.83;5.50;;;;;;;14.50;92.60;101280.03;5052787;28;20572;-72
2021/10/14 08:46:40;;;;;;;6.60;4.97;;;;;;;14.63;92.29;101264.00;5053184;28;20187;-72
2021/10/14 08:49:08;;;;;;;4.70;3.90;;;;;;;14.63;91.37;101275.59;5054550;28;20264;-72
2021/10/14 08:51:33;;;;;;;7.63;4.40;;;;;;;14.55;91.39;101277.91;5036346;28;20191;-72
2021/10/14 08:53:59;;;;;;;4.23;3.80;;;;;;;14.69;91.41;101274.34;5052591;28;20199;-72
2021/10/14 08:56:24;;;;;;;6.17;3.93;;;;;;;14.80;91.15;101273.66;5053934;28;20645;-72
2021/10/14 08:58:49;;;;;;;5.90;3.03;;;;;;;14.62;91.28;101273.88;5053076;28;20175;-72
2021/10/14 09:01:15;;;;;;;5.13;3.80;;;;;;;14.68;91.60;101275.31;5052624;28;20202;-72
2021/10/14 09:03:48;;;;;;;4.30;3.10;;;;;;;14.65;92.56;101268.31;5052839;28;20542;-72
2021/10/14 09:06:14;;;;;;;6.77;3.20;;;;;;;14.72;91.79;101263.41;5052321;28;20195;-71
2021/10/14 09:08:41;;;;;;;5.23;2.93;;;;;;;14.83;91.72;101265.41;5052489;28;20175;-72
2021/10/14 09:11:09;;;;;;;3.43;3.00;;;;;;;14.96;90.47;101256.47;5052934;28;20200;-71
2021/10/14 09:13:34;;;;;;;3.43;2.80;;;;;;;14.80;91.06;101260.22;5053011;28;20653;-72
2021/10/14 09:16:23;;;;;;;4.77;2.80;;;;;;;14.53;91.77;101262.84;5053458;28;20182;-73
2021/10/14 09:18:48;;;;;;;2.77;2.47;;;;;;;14.90;91.31;101250.63;5052380;28;20195;-72
2021/10/14 09:21:27;;;;;;;3.07;2.27;;;;;;;14.91;90.59;101249.69;5052799;28;20202;-72
2021/10/14 09:23:53;;;;;;;4.97;3.10;;;;;;;15.00;90.30;101251.75;5052752;28;20490;-72
2021/10/14 09:26:33;;;;;;;6.07;3.67;;;;;;;15.51;88.20;101252.84;5053031;28;20175;-73
2021/10/14 09:29:12;;;;;;;4.80;2.90;;;;;;;15.70;87.32;101244.44;5053894;28;20638;-72
2021/10/14 09:31:53;;;;;;;3.17;2.07;;;;;;;15.50;88.20;101240.34;5052976;28;20207;-72
2021/10/14 09:34:42;;;;;;;2.80;1.70;;;;;;;15.59;87.07;101245.16;5052676;28;20191;-72
2021/10/14 09:37:16;;;;;;;3.97;2.13;;;;;;;15.57;86.63;101236.28;5052277;28;20183;-70
2021/10/14 09:39:54;;;;;;;3.57;1.60;;;;;;;16.10;84.77;101233.63;5053642;28;20171;-71
2021/10/14 09:42:39;;;;;;;1.83;1.40;;;;;;;16.05;84.18;101230.41;5053532;28;20263;-71
2021/10/14 09:45:16;;;;;;;1.17;1.00;;;;;;;15.80;83.45;101229.38;5053814;28;20518;-71
2021/10/14 09:47:52;;;;;;;1.70;1.20;;;;;;;15.87;83.99;101230.69;5056016;28;20160;-71
2021/10/14 09:50:18;;;;;;;1.47;1.10;;;;;;;15.89;83.22;101235.97;5054562;28;20207;-71
2021/10/14 09:52:43;;;;;;;3.40;0.90;;;;;;;16.03;82.66;101237.72;5055042;28;20253;-71
2021/10/14 09:55:09;;;;;;;2.37;1.20;;;;;;;15.97;81.92;101230.03;5053169;28;20187;-71
2021/10/14 09:57:35;;;;;;;1.00;0.90;;;;;;;16.16;81.70;101234.06;5054453;28;20207;-71
2021/10/14 10:00:00;;;;;;;7.90;1.40;;;;;;;15.92;82.04;101231.22;5037524;28;20179;-71
2021/10/14 10:02:25;;;;;;;1.63;1.10;;;;;;;16.07;81.73;101228.47;5054022;28;20183;-72
2021/10/14 10:04:51;;;;;;;2.73;1.40;;;;;;;16.11;82.02;101229.97;5052750;28;20183;-71
2021/10/14 10:07:17;;;;;;;2.50;1.30;;;;;;;15.85;82.29;101229.06;5054064;28;20194;-73
2021/10/14 10:09:43;;;;;;;3.20;1.40;;;;;;;15.66;83.01;101234.00;5052536;28;20182;-71
2021/10/14 10:12:09;;;;;;;2.33;1.10;;;;;;;15.75;82.27;101228.84;5051721;28;20261;-73
2021/10/14 10:14:34;;;;;;;1.33;0.93;;;;;;;16.09;82.04;101231.91;5051819;28;20241;-72
2021/10/14 10:17:06;;;;;;;2.03;1.10;;;;;;;15.82;82.60;101229.28;5051920;28;20183;-71
2021/10/14 10:19:38;;;;;;;2.33;0.90;;;;;;;15.65;83.14;101226.88;5053167;28;20167;-73
2021/10/14 10:22:04;;;;;;;1.30;1.00;;;;;;;15.59;83.89;101231.69;5051909;28;20195;-72
2021/10/14 10:24:31;;;;;;;1.00;0.90;;;;;;;15.55;84.13;101226.59;5051350;28;20186;-72
2021/10/14 10:26:57;;;;;;;2.30;1.03;;;;;;;15.38;84.61;101218.81;5052970;28;20187;-72
2021/10/14 10:29:22;;;;;;;3.23;2.23;;;;;;;15.79;83.82;101224.97;5051351;28;20171;-72
2021/10/14 10:31:48;;;;;;;1.13;0.80;;;;;;;15.48;83.66;101231.53;5052306;28;20335;-71
2021/10/14 10:34:35;;;;;;;2.03;0.90;;;;;;;15.41;83.99;101216.78;5051124;28;20196;-71
2021/10/14 10:37:21;;;;;;;2.50;0.90;;;;;;;15.52;83.87;101210.66;5052992;28;20168;-71
2021/10/14 10:39:54;;;;;;;1.87;1.00;;;;;;;15.54;82.78;101216.81;5051945;28;20239;-72
2021/10/14 10:42:38;;;;;;;2.73;1.10;;;;;;;16.01;81.43;101213.59;5034699;28;20180;-70
2021/10/14 10:45:10;;;;;;;1.57;0.83;;;;;;;15.91;81.55;101205.28;5052385;28;20179;-71
2021/10/14 10:47:44;;;;;;;1.90;0.80;;;;;;;16.01;80.58;101218.13;5051800;28;20180;-71
2021/10/14 10:50:38;;;;;;;2.77;1.10;;;;;;;16.11;80.49;101203.03;5052384;28;20195;-71
2021/10/14 10:53:03;;;;;;;2.70;0.90;;;;;;;16.31;79.37;101201.63;5047808;28;20203;-72
2021/10/14 10:55:28;;;;;;;2.90;1.00;;;;;;;16.06;79.31;101195.28;5052756;28;20187;-72
2021/10/14 10:57:55;;;;;;;4.73;2.43;;;;;;;16.16;80.01;101196.34;5052666;28;20225;-72
2021/10/14 11:00:22;;;;;;;2.97;1.07;;;;;;;16.24;79.86;101188.59;5051133;28;20223;-71
2021/10/14 11:03:12;;;;;;;3.30;1.40;;;;;;;16.06;79.32;101183.66;5054299;28;20168;-71
2021/10/14 11:05:39;;;;;;;2.30;0.83;;;;;;;16.37;78.59;101172.44;5055324;28;20210;-71
2021/10/14 11:08:06;;;;;;;3.23;1.20;;;;;;;16.83;76.97;101177.22;5056327;28;20254;-71
2021/10/14 11:10:31;;;;;;;2.70;1.00;;;;;;;16.68;76.96;101170.22;5054795;28;20336;-72
2021/10/14 11:12:58;;;;;;;2.70;0.93;;;;;;;16.57;76.68;101171.00;5056182;28;20203;-74
2021/10/14 11:15:26;;;;;;;2.47;1.20;;;;;;;16.62;76.01;101168.81;5054950;28;20183;-72
2021/10/14 11:18:05;;;;;;;3.93;1.10;;;;;;;16.60;75.55;101172.59;5054702;28;20609;-71
2021/10/14 11:20:31;;;;;;;2.00;0.90;;;;;;;16.52;75.96;101160.53;5038010;28;20215;-71
2021/10/14 11:23:02;;;;;;;1.27;0.70;;;;;;;16.71;75.53;101175.41;5037999;28;20171;-71